Time;durP1;ratioP1;P1;durP2;ratioP2;P2;SDS_P1;SDS_P2;PMS_P1;PMS_P2;Temp;Humidity;BMP_temperature;BMP_pressure;BME280_temperature;BME280_humidity;BME280_pressure;Samples;Min_cycle;Max_cycle;Signal;HPM_P1;HPM_P2
2022/09/09 00:04:34;;;;;;;7.43;1.17;;;12.80;99.90;;;;;;21000309;28;20094;-78
2022/09/09 00:14:51;;;;;;;8.05;0.90;;;13.00;99.90;;;;;;21015623;28;20449;-78
2022/09/09 00:24:54;;;;;;;3.35;1.67;;;13.20;99.90;;;;;;21013673;28;20040;-79
2022/09/09 00:35:17;;;;;;;3.58;0.85;;;13.30;99.90;;;;;;21008355;28;20076;-79
2022/09/09 00:45:52;;;;;;;3.70;1.08;;;13.30;99.90;;;;;;20987944;28;20135;-78
2022/09/09 00:56:21;;;;;;;1.77;0.75;;;13.50;99.90;;;;;;20931236;28;1134852;-79
2022/09/09 01:06:31;;;;;;;8.38;2.10;;;13.40;99.90;;;;;;21016987;28;20055;-78
2022/09/09 01:16:32;;;;;;;2.47;1.00;;;13.10;99.90;;;;;;20982406;28;20131;-79
2022/09/09 01:26:40;;;;;;;2.58;1.20;;;13.10;99.90;;;;;;20996880;28;20036;-80
2022/09/09 01:37:07;;;;;;;7.57;1.40;;;13.10;99.90;;;;;;20988496;28;20113;-76
2022/09/09 01:47:08;;;;;;;3.00;1.20;;;13.10;99.90;;;;;;20983821;28;20037;-77
2022/09/09 01:57:23;;;;;;;1.45;0.90;;;13.10;99.90;;;;;;20989641;28;20032;-76
2022/09/09 02:07:42;;;;;;;13.43;1.40;;;13.20;99.90;;;;;;20984203;28;20574;-77
2022/09/09 02:18:16;;;;;;;3.40;1.50;;;13.20;99.90;;;;;;20989018;28;20115;-77
2022/09/09 02:28:21;;;;;;;6.93;1.63;;;13.20;99.90;;;;;;20985384;28;20032;-77
2022/09/09 02:38:26;;;;;;;6.00;1.70;;;13.30;99.90;;;;;;20980753;28;20068;-76
2022/09/09 02:49:05;;;;;;;3.25;2.20;;;13.00;99.90;;;;;;20982669;28;20044;-77
2022/09/09 02:59:11;;;;;;;4.13;1.95;;;12.80;99.90;;;;;;20988378;28;20082;-78
2022/09/09 03:09:13;;;;;;;10.50;2.55;;;13.10;99.90;;;;;;20991801;28;20044;-78
2022/09/09 03:19:14;;;;;;;8.77;2.20;;;12.90;99.90;;;;;;21013414;28;20645;-78
2022/09/09 03:29:16;;;;;;;4.32;2.25;;;13.00;99.90;;;;;;21004926;28;20402;-78
2022/09/09 03:39:17;;;;;;;2.65;1.42;;;13.20;99.90;;;;;;21003886;28;20180;-77
2022/09/09 03:49:20;;;;;;;9.27;2.20;;;13.20;99.90;;;;;;21020816;28;20033;-78
2022/09/09 03:59:22;;;;;;;6.88;1.77;;;13.30;99.90;;;;;;21033551;28;20032;-76
2022/09/09 04:09:24;;;;;;;5.00;2.55;;;13.00;99.90;;;;;;21085936;28;20058;-78
2022/09/09 04:19:26;;;;;;;8.52;2.70;;;13.00;99.90;;;;;;21103705;28;20099;-78
2022/09/09 04:29:27;;;;;;;9.48;3.53;;;13.10;99.90;;;;;;21086531;28;20044;-77
2022/09/09 04:39:28;;;;;;;6.27;2.70;;;13.10;99.90;;;;;;21086453;28;20085;-75
2022/09/09 04:49:30;;;;;;;7.65;2.92;;;13.10;99.90;;;;;;21069353;28;20649;-77
2022/09/09 04:59:31;;;;;;;16.92;4.47;;;13.10;99.90;;;;;;21066892;28;20105;-76
2022/09/09 05:09:35;;;;;;;5.30;2.78;;;13.00;99.90;;;;;;21066969;28;20039;-76
2022/09/09 05:19:36;;;;;;;8.30;2.60;;;12.90;99.90;;;;;;21080214;28;20035;-79
2022/09/09 05:29:37;;;;;;;4.10;2.08;;;12.90;99.90;;;;;;21078582;28;20075;-77
2022/09/09 05:39:40;;;;;;;7.43;2.50;;;13.30;99.90;;;;;;21002804;28;20541;-77
2022/09/09 05:49:41;;;;;;;15.87;3.20;;;13.60;99.90;;;;;;21024919;28;20044;-78
2022/09/09 05:59:42;;;;;;;8.67;2.20;;;13.80;99.90;;;;;;20991312;28;20079;-78
2022/09/09 06:09:43;;;;;;;4.60;2.00;;;14.30;99.90;;;;;;21012238;28;20039;-78
2022/09/09 06:19:44;;;;;;;4.87;2.17;;;14.50;99.90;;;;;;20996169;28;20414;-78
2022/09/09 06:29:45;;;;;;;6.50;2.60;;;14.10;99.90;;;;;;20995209;28;20041;-78
2022/09/09 06:39:45;;;;;;;8.80;4.57;;;14.80;99.90;;;;;;20997961;28;20190;-78
2022/09/09 06:49:46;;;;;;;11.27;6.87;;;14.90;99.90;;;;;;20996620;28;20136;-78
2022/09/09 06:59:48;;;;;;;15.43;8.40;;;14.90;99.90;;;;;;20981624;22;20053;-77
2022/09/09 07:09:49;;;;;;;12.90;7.60;;;15.50;99.90;;;;;;20912796;28;20044;-77
2022/09/09 07:19:50;;;;;;;11.15;6.90;;;16.10;99.90;;;;;;20888063;28;20037;-76
2022/09/09 07:29:54;;;;;;;;;;;16.30;99.90;;;;;;20894187;28;20048;-79
2022/09/09 07:39:55;;;;;;;8.68;4.53;;;16.40;99.90;;;;;;20915549;28;19944;-78
2022/09/09 07:49:57;;;;;;;8.82;4.20;;;16.50;99.90;;;;;;20878746;28;20037;-78
2022/09/09 08:00:04;;;;;;;5.07;2.80;;;17.50;99.90;;;;;;20900226;28;20041;-78
2022/09/09 08:10:14;;;;;;;3.65;2.78;;;18.80;99.90;;;;;;20930575;28;20071;-78
2022/09/09 08:20:16;;;;;;;8.27;2.67;;;18.20;99.90;;;;;;20912872;28;20037;-78
2022/09/09 08:30:17;;;;;;;7.40;2.13;;;18.10;99.90;;;;;;20928093;28;20047;-77
2022/09/09 08:40:26;;;;;;;3.50;2.23;;;20.40;99.90;;;;;;20910920;28;20077;-78
2022/09/09 08:50:33;;;;;;;3.58;1.73;;;19.70;99.90;;;;;;20896442;28;20041;-78
2022/09/09 09:00:59;;;;;;;8.88;1.20;;;20.30;99.90;;;;;;20918903;28;20537;-77
2022/09/09 09:11:01;;;;;;;4.10;0.85;;;20.30;99.90;;;;;;20907595;28;20064;-78
2022/09/09 09:21:14;;;;;;;5.78;0.85;;;20.10;99.90;;;;;;20906014;28;20033;-78
2022/09/09 09:31:19;;;;;;;4.03;0.95;;;21.20;99.90;;;;;;20889724;28;20041;-77
2022/09/09 09:41:41;;;;;;;7.55;0.60;;;20.90;99.90;;;;;;20904013;28;20043;-78
2022/09/09 09:51:44;;;;;;;9.70;0.98;;;19.40;99.90;;;;;;20919272;28;20067;-77
2022/09/09 10:01:45;;;;;;;4.85;1.08;;;19.30;99.90;;;;;;20900825;28;20029;-77
2022/09/09 10:12:04;;;;;;;;;;;21.10;99.90;;;;;;20900266;28;20049;-77
2022/09/09 10:22:31;;;;;;;4.38;0.60;;;21.40;99.90;;;;;;20949737;28;19920;-77
2022/09/09 10:32:51;;;;;;;1.83;0.50;;;22.10;99.90;;;;;;20917931;28;20041;-77
2022/09/09 10:42:58;;;;;;;3.13;0.93;;;21.70;99.90;;;;;;20913913;28;20052;-77
2022/09/09 10:53:31;;;;;;;3.80;0.70;;;22.40;99.90;;;;;;20899974;28;20040;-77
2022/09/09 11:03:35;;;;;;;1.58;0.40;;;22.40;99.90;;;;;;20892816;28;20601;-77
2022/09/09 11:13:52;;;;;;;3.05;0.60;;;23.10;99.90;;;;;;20913507;28;20037;-77
2022/09/09 11:24:13;;;;;;;5.57;0.50;;;23.50;99.90;;;;;;20910755;28;20052;-78
2022/09/09 11:34:49;;;;;;;0.83;0.40;;;24.10;99.90;;;;;;20916736;28;20045;-78
2022/09/09 11:44:50;;;;;;;1.52;0.43;;;23.80;99.90;;;;;;20911156;28;20279;-77
2022/09/09 11:54:51;;;;;;;2.35;0.50;;;23.20;99.90;;;;;;20924835;28;20664;-77
2022/09/09 12:05:00;;;;;;;3.50;0.30;;;23.70;99.90;;;;;;20926835;28;20095;-77
2022/09/09 12:15:20;;;;;;;0.57;0.22;;;22.40;99.90;;;;;;20924803;28;20044;-77
2022/09/09 12:25:22;;;;;;;3.05;0.40;;;24.10;99.90;;;;;;20924650;28;20518;-77
2022/09/09 12:35:28;;;;;;;4.75;0.50;;;23.70;99.90;;;;;;20915167;28;20044;-78
2022/09/09 12:45:32;;;;;;;2.97;0.60;;;25.20;99.90;;;;;;20916428;28;20040;-78
2022/09/09 12:55:37;;;;;;;1.65;0.47;;;24.10;99.90;;;;;;20986885;22;20048;-76
2022/09/09 13:05:39;;;;;;;4.38;0.50;;;23.90;99.90;;;;;;20971989;28;20044;-77
2022/09/09 13:15:40;;;;;;;3.88;0.43;;;22.60;99.90;;;;;;20976407;28;20131;-77
2022/09/09 13:25:41;;;;;;;1.52;0.40;;;22.20;99.90;;;;;;20921707;28;20519;-77
2022/09/09 13:36:04;;;;;;;3.77;0.60;;;22.00;99.90;;;;;;20919958;28;20116;-77
2022/09/09 13:46:36;;;;;;;3.67;0.32;;;22.10;99.90;;;;;;20880640;28;20045;-78
2022/09/09 13:56:38;;;;;;;;;;;20.70;99.90;;;;;;20935606;28;20048;-78
2022/09/09 14:06:39;;;;;;;0.80;0.28;;;19.60;99.90;;;;;;20951884;28;19908;-79
2022/09/09 14:16:40;;;;;;;3.00;0.20;;;20.80;99.90;;;;;;21008786;28;20048;-77
2022/09/09 14:26:41;;;;;;;3.67;0.40;;;22.30;99.90;;;;;;20921337;28;20310;-77
2022/09/09 14:36:42;;;;;;;1.27;0.40;;;23.10;99.90;;;;;;20929008;28;20321;-76
2022/09/09 14:46:43;;;;;;;5.57;0.30;;;22.60;99.90;;;;;;20947383;28;20041;-76
2022/09/09 14:56:43;;;;;;;5.00;0.40;;;23.10;99.90;;;;;;20938983;28;20041;-76
2022/09/09 15:06:47;;;;;;;1.30;0.27;;;23.40;99.90;;;;;;20921388;28;20056;-77
2022/09/09 15:16:48;;;;;;;2.60;0.25;;;21.70;99.90;;;;;;20927363;28;20044;-76
2022/09/09 15:26:49;;;;;;;1.03;0.20;;;22.70;99.90;;;;;;20916750;28;20403;-76
2022/09/09 15:36:50;;;;;;;2.17;0.40;;;23.30;99.90;;;;;;20925648;28;20598;-77
2022/09/09 15:46:55;;;;;;;2.13;0.33;;;23.00;99.90;;;;;;20930460;28;20449;-77
2022/09/09 15:57:00;;;;;;;0.88;0.20;;;22.90;99.90;;;;;;20930633;28;20081;-77
2022/09/09 16:07:04;;;;;;;1.83;0.40;;;22.10;99.90;;;;;;20928737;28;20547;-76
2022/09/09 16:17:05;;;;;;;0.60;0.30;;;21.10;99.90;;;;;;20919427;28;20403;-75
2022/09/09 16:27:06;;;;;;;2.25;1.45;;;20.80;99.90;;;;;;20918783;28;20094;-75
2022/09/09 16:37:07;;;;;;;3.53;0.40;;;20.50;99.90;;;;;;20915901;28;20039;-75
2022/09/09 16:47:08;;;;;;;3.40;0.40;;;20.00;99.90;;;;;;20927859;28;20029;-73
2022/09/09 16:57:08;;;;;;;2.70;0.30;;;19.10;99.90;;;;;;20958564;28;20041;-75
2022/09/09 17:07:10;;;;;;;2.97;0.80;;;18.70;99.90;;;;;;20991368;28;20133;-75
2022/09/09 17:17:11;;;;;;;0.88;0.15;;;18.50;99.90;;;;;;20959483;28;20037;-74
2022/09/09 17:27:12;;;;;;;3.53;0.30;;;18.10;99.90;;;;;;20951550;28;20028;-74
2022/09/09 17:37:13;;;;;;;;;;;18.10;99.90;;;;;;20972802;28;20076;-74
2022/09/09 17:47:14;;;;;;;0.65;0.32;;;18.00;99.90;;;;;;20999243;28;20310;-75
2022/09/09 17:57:16;;;;;;;2.57;0.20;;;18.30;99.90;;;;;;20999769;28;20028;-75
2022/09/09 18:07:17;;;;;;;2.47;0.30;;;18.00;99.90;;;;;;20985828;28;20040;-75
2022/09/09 18:17:18;;;;;;;1.17;0.30;;;17.90;99.90;;;;;;21004820;28;20039;-76
2022/09/09 18:27:19;;;;;;;0.33;0.10;;;17.60;99.90;;;;;;21011457;28;20047;-77
2022/09/09 18:37:20;;;;;;;0.60;0.20;;;16.80;99.90;;;;;;21007044;28;20119;-75
2022/09/09 18:47:23;;;;;;;0.50;0.30;;;16.50;99.90;;;;;;20997944;28;20119;-75
2022/09/09 18:57:24;;;;;;;1.90;0.30;;;16.00;99.90;;;;;;20997628;28;20084;-75
2022/09/09 19:07:25;;;;;;;2.70;0.37;;;16.00;99.90;;;;;;20995642;28;20037;-75
2022/09/09 19:17:27;;;;;;;5.97;0.53;;;15.90;99.90;;;;;;20995075;28;20086;-75
2022/09/09 19:27:29;;;;;;;1.35;0.35;;;15.50;99.90;;;;;;20995776;28;20062;-75
2022/09/09 19:37:31;;;;;;;1.67;0.30;;;15.60;99.90;;;;;;20980086;28;20563;-76
2022/09/09 19:47:31;;;;;;;1.50;0.43;;;15.40;99.90;;;;;;21000946;28;20045;-77
2022/09/09 19:57:33;;;;;;;6.73;0.50;;;15.40;99.90;;;;;;20996323;28;20048;-76
2022/09/09 20:07:33;;;;;;;2.00;0.40;;;15.40;99.90;;;;;;21004058;28;20059;-76
2022/09/09 20:17:34;;;;;;;1.03;0.57;;;15.40;99.90;;;;;;21006946;28;20049;-76
2022/09/09 20:27:35;;;;;;;2.03;0.53;;;15.50;99.90;;;;;;21017675;28;20116;-76
2022/09/09 20:37:38;;;;;;;2.57;0.80;;;15.30;99.90;;;;;;21002991;28;20052;-75
2022/09/09 20:47:39;;;;;;;1.50;0.50;;;15.30;99.90;;;;;;21001611;28;20043;-75
2022/09/09 20:57:40;;;;;;;1.23;0.60;;;15.10;99.90;;;;;;21000274;28;20041;-75
2022/09/09 21:07:41;;;;;;;0.97;0.50;;;15.20;99.90;;;;;;20912732;28;20033;-75
2022/09/09 21:17:42;;;;;;;3.77;0.90;;;15.00;99.90;;;;;;20917984;28;20057;-75
2022/09/09 21:27:42;;;;;;;0.97;0.40;;;14.80;99.90;;;;;;20917373;28;20056;-75
2022/09/09 21:37:44;;;;;;;1.80;0.70;;;14.50;99.90;;;;;;20915355;28;20033;-76
2022/09/09 21:47:49;;;;;;;4.80;0.67;;;14.40;99.90;;;;;;20927427;28;20064;-75
2022/09/09 21:57:50;;;;;;;7.85;1.15;;;14.10;99.90;;;;;;20929100;28;20865;-75
2022/09/09 22:07:52;;;;;;;5.00;0.80;;;14.00;99.90;;;;;;20915135;28;20036;-76
2022/09/09 22:17:54;;;;;;;;;;;14.20;99.90;;;;;;20914453;28;20098;-75
2022/09/09 22:27:55;;;;;;;2.38;0.95;;;14.30;99.90;;;;;;20926700;28;19965;-76
2022/09/09 22:37:56;;;;;;;1.10;0.73;;;14.30;99.90;;;;;;20946339;28;20514;-75
2022/09/09 22:47:59;;;;;;;3.42;0.80;;;14.30;99.90;;;;;;20943171;28;20036;-76
2022/09/09 22:58:00;;;;;;;1.77;0.55;;;14.40;99.90;;;;;;20979927;28;20094;-76
2022/09/09 23:08:01;;;;;;;3.70;0.80;;;14.50;99.90;;;;;;20987798;28;20032;-76
2022/09/09 23:18:02;;;;;;;5.73;0.70;;;14.60;99.90;;;;;;20970105;28;20097;-76
2022/09/09 23:28:03;;;;;;;2.70;0.67;;;14.70;99.90;;;;;;20937530;28;20044;-76
2022/09/09 23:38:04;;;;;;;1.43;0.57;;;14.70;99.90;;;;;;20950192;28;20155;-76
2022/09/09 23:48:05;;;;;;;6.70;1.73;;;14.50;99.90;;;;;;20942677;28;20282;-76
2022/09/09 23:58:05;;;;;;;2.60;0.77;;;14.30;99.90;;;;;;20904984;28;20431;-76
